createdAt,value
2019-05-02T00:01:33.784Z,99.90
2019-05-02T00:04:02.119Z,99.90
2019-05-02T00:06:29.685Z,99.90
2019-05-02T00:08:57.248Z,99.90
2019-05-02T00:11:24.821Z,99.90
2019-05-02T00:13:52.384Z,99.90
2019-05-02T00:16:19.952Z,99.90
2019-05-02T00:18:47.525Z,99.90
2019-05-02T00:21:15.100Z,99.90
2019-05-02T00:23:42.665Z,99.90
2019-05-02T00:26:10.232Z,99.90
2019-05-02T00:28:37.795Z,99.90
2019-05-02T00:31:07.467Z,99.90
2019-05-02T00:33:35.865Z,99.90
2019-05-02T00:36:02.499Z,99.90
2019-05-02T00:38:33.396Z,99.90
2019-05-02T00:41:02.227Z,99.90
2019-05-02T00:43:29.108Z,99.90
2019-05-02T00:45:55.097Z,99.90
2019-05-02T00:48:23.175Z,99.90
2019-05-02T00:50:50.914Z,99.90
2019-05-02T00:53:17.460Z,99.90
2019-05-02T00:55:45.027Z,99.90
2019-05-02T00:58:12.595Z,99.90
2019-05-02T01:00:56.783Z,99.90
2019-05-02T01:03:24.347Z,99.90
2019-05-02T01:05:51.922Z,99.90
2019-05-02T01:08:20.411Z,99.90
2019-05-02T01:10:52.160Z,99.90
2019-05-02T01:13:19.197Z,99.90
2019-05-02T01:15:45.954Z,99.90
2019-05-02T01:18:13.503Z,99.90
2019-05-02T01:20:41.068Z,99.90
2019-05-02T01:23:09.569Z,99.90
2019-05-02T01:25:37.133Z,99.90
2019-05-02T01:28:12.631Z,99.90
2019-05-02T01:33:36.757Z,99.90
2019-05-02T01:36:07.991Z,99.90
2019-05-02T01:38:36.323Z,99.90
2019-05-02T01:41:03.895Z,99.90
2019-05-02T01:43:33.384Z,99.90
2019-05-02T01:46:00.968Z,99.90
2019-05-02T01:48:28.532Z,99.90
2019-05-02T01:50:58.013Z,99.90
2019-05-02T01:53:29.216Z,99.90
2019-05-02T01:55:57.625Z,99.90
2019-05-02T01:58:24.643Z,99.90
2019-05-02T02:00:52.206Z,99.90
2019-05-02T02:03:19.767Z,99.90
2019-05-02T02:05:47.337Z,99.90
2019-05-02T02:08:14.903Z,99.90
2019-05-02T02:10:43.890Z,99.90
2019-05-02T02:13:10.876Z,99.90
2019-05-02T02:15:38.443Z,99.90
2019-05-02T02:18:06.006Z,99.90
2019-05-02T02:20:39.031Z,99.90
2019-05-02T02:23:10.274Z,99.90
2019-05-02T02:25:37.547Z,99.90
2019-05-02T02:28:05.102Z,99.90
2019-05-02T02:30:32.682Z,99.90
2019-05-02T02:33:06.968Z,99.90
2019-05-02T02:35:27.869Z,99.90
2019-05-02T02:37:55.849Z,99.90
2019-05-02T02:40:32.899Z,99.90
2019-05-02T02:42:52.317Z,99.90
2019-05-02T02:45:24.322Z,99.90
2019-05-02T02:47:59.917Z,99.90
2019-05-02T02:50:21.445Z,99.90
2019-05-02T02:52:49.013Z,99.90
2019-05-02T02:55:22.053Z,99.90
2019-05-02T02:57:44.188Z,99.90
2019-05-02T03:00:12.679Z,99.90
2019-05-02T03:02:47.654Z,99.90
2019-05-02T03:05:08.633Z,99.90
2019-05-02T03:07:36.220Z,99.90
2019-05-02T03:10:06.165Z,99.90
2019-05-02T03:12:36.147Z,99.90
2019-05-02T03:15:01.933Z,99.90
2019-05-02T03:17:30.432Z,99.90
2019-05-02T03:20:01.101Z,99.90
2019-05-02T03:22:25.619Z,99.90
2019-05-02T03:24:53.193Z,99.90
2019-05-02T03:27:30.038Z,99.90
2019-05-02T03:30:03.321Z,99.90
2019-05-02T03:32:35.015Z,99.90
2019-05-02T03:34:58.552Z,99.90
2019-05-02T03:37:26.089Z,99.90
2019-05-02T03:39:57.450Z,99.90
2019-05-02T03:42:23.182Z,99.90
2019-05-02T03:44:56.036Z,99.90
2019-05-02T03:47:18.354Z,99.90
2019-05-02T03:49:48.720Z,99.90
2019-05-02T03:52:13.528Z,99.90
2019-05-02T03:54:50.547Z,99.90
2019-05-02T03:57:08.710Z,99.90
2019-05-02T03:59:39.263Z,99.90
2019-05-02T04:02:03.883Z,99.90
2019-05-02T04:04:31.440Z,99.90
2019-05-02T04:07:01.209Z,99.90
2019-05-02T04:09:32.068Z,99.90
2019-05-02T04:11:57.231Z,99.90
2019-05-02T04:14:37.561Z,99.90
2019-05-02T04:16:55.124Z,99.90
2019-05-02T04:19:21.970Z,99.90
2019-05-02T04:21:52.689Z,99.90
2019-05-02T04:24:17.901Z,99.90
2019-05-02T04:26:53.666Z,99.90
2019-05-02T04:29:13.067Z,99.90
2019-05-02T04:31:40.637Z,99.90
2019-05-02T04:34:15.121Z,99.90
2019-05-02T04:36:35.828Z,99.90
2019-05-02T04:39:05.832Z,99.90
2019-05-02T04:41:34.130Z,99.90
2019-05-02T04:44:01.577Z,99.90
2019-05-02T04:46:31.162Z,99.90
2019-05-02T04:48:58.801Z,99.90
2019-05-02T04:51:27.648Z,99.90
2019-05-02T04:53:54.817Z,99.90
2019-05-02T04:56:22.380Z,99.90
2019-05-02T04:58:49.943Z,99.90
2019-05-02T05:01:17.506Z,99.90
2019-05-02T05:03:51.323Z,99.90
2019-05-02T05:06:12.700Z,99.90
2019-05-02T05:08:41.740Z,99.90
2019-05-02T05:11:07.911Z,99.90
2019-05-02T05:13:37.419Z,99.90
2019-05-02T05:16:07.576Z,99.90
2019-05-02T05:18:30.688Z,99.90
2019-05-02T05:20:58.256Z,99.90
2019-05-02T05:23:38.655Z,99.90
2019-05-02T05:26:07.340Z,99.90
2019-05-02T05:28:35.009Z,99.90
2019-05-02T05:31:01.476Z,99.90
2019-05-02T05:33:29.040Z,99.90
2019-05-02T05:35:57.838Z,99.90
2019-05-02T05:38:28.682Z,99.90
2019-05-02T05:40:53.720Z,99.90
2019-05-02T05:43:21.307Z,99.90
2019-05-02T05:45:56.106Z,99.90
2019-05-02T05:48:19.363Z,99.90
2019-05-02T05:50:47.859Z,99.90
2019-05-02T05:53:17.098Z,99.90
2019-05-02T05:55:42.913Z,99.90
2019-05-02T05:58:15.365Z,99.90
2019-05-02T06:00:38.170Z,99.90
2019-05-02T06:03:12.956Z,99.90
2019-05-02T06:05:38.449Z,99.90
2019-05-02T06:08:01.091Z,99.90
2019-05-02T06:10:28.647Z,99.90
2019-05-02T06:12:58.147Z,99.90
2019-05-02T06:15:25.707Z,99.90
2019-05-02T06:17:53.273Z,99.90
2019-05-02T06:20:20.834Z,99.90
2019-05-02T06:22:48.394Z,99.90
2019-05-02T06:25:17.031Z,99.90
2019-05-02T06:27:45.352Z,99.90
2019-05-02T06:30:13.146Z,99.90
2019-05-02T06:32:40.711Z,99.90
2019-05-02T06:35:08.291Z,99.90
2019-05-02T06:37:36.778Z,99.90
2019-05-02T06:40:08.073Z,99.90
2019-05-02T06:42:32.733Z,99.90
2019-05-02T06:45:01.056Z,99.90
2019-05-02T06:47:28.158Z,99.90
2019-05-02T06:50:01.079Z,99.90
2019-05-02T06:52:27.192Z,99.90
2019-05-02T06:54:54.115Z,99.90
2019-05-02T06:57:24.115Z,99.90
2019-05-02T06:59:49.929Z,99.90
2019-05-02T07:02:14.755Z,99.90
2019-05-02T07:04:42.319Z,99.90
2019-05-02T07:07:12.900Z,99.90
2019-05-02T07:09:41.365Z,99.90
2019-05-02T07:12:09.883Z,99.90
2019-05-02T07:14:34.625Z,99.90
2019-05-02T07:17:05.716Z,99.90
2019-05-02T07:19:32.171Z,99.90
2019-05-02T07:22:04.008Z,99.90
2019-05-02T07:24:30.559Z,99.90
2019-05-02T07:26:56.798Z,99.90
2019-05-02T07:29:23.148Z,99.90
2019-05-02T07:31:53.226Z,99.90
2019-05-02T07:34:18.719Z,99.90
2019-05-02T07:36:46.289Z,99.90
2019-05-02T07:39:15.794Z,99.90
2019-05-02T07:41:43.367Z,99.90
2019-05-02T07:44:11.896Z,99.90
2019-05-02T07:46:51.153Z,99.90
2019-05-02T07:49:09.023Z,99.90
2019-05-02T07:51:36.592Z,99.90
2019-05-02T07:54:04.161Z,99.90
2019-05-02T07:56:31.726Z,99.90
2019-05-02T07:59:00.206Z,99.90
2019-05-02T08:01:28.767Z,99.90
2019-05-02T08:03:56.343Z,99.90
2019-05-02T08:06:34.684Z,99.90
2019-05-02T08:08:51.527Z,99.90
2019-05-02T08:11:19.095Z,99.90
2019-05-02T08:13:49.499Z,99.90
2019-05-02T08:16:15.803Z,99.90
2019-05-02T08:18:43.362Z,99.90
2019-05-02T08:21:11.013Z,99.90
2019-05-02T08:23:38.571Z,99.90
2019-05-02T08:26:08.050Z,99.90
2019-05-02T08:28:39.490Z,99.90
2019-05-02T08:31:07.055Z,99.90
2019-05-02T08:33:35.811Z,99.90
2019-05-02T08:36:02.232Z,99.90
2019-05-02T08:38:30.728Z,99.90
2019-05-02T08:40:58.291Z,99.90
2019-05-02T08:43:25.855Z,99.90
2019-05-02T08:45:53.422Z,99.90
2019-05-02T08:48:22.692Z,99.90
2019-05-02T08:50:50.514Z,99.90
2019-05-02T08:53:19.955Z,99.90
2019-05-02T08:55:46.750Z,99.90
2019-05-02T08:58:15.898Z,99.90
2019-05-02T09:00:42.763Z,99.90
2019-05-02T09:03:10.320Z,99.90
2019-05-02T09:05:45.555Z,99.90
2019-05-02T09:08:09.194Z,99.90
2019-05-02T09:10:37.182Z,99.90
2019-05-02T09:13:02.806Z,99.90
2019-05-02T09:15:31.757Z,99.90
2019-05-02T09:17:58.750Z,99.90
2019-05-02T09:20:26.309Z,99.90
2019-05-02T09:22:55.955Z,99.90
2019-05-02T09:25:21.959Z,99.90
2019-05-02T09:27:49.083Z,99.90
2019-05-02T09:30:22.703Z,99.90
2019-05-02T09:32:44.246Z,99.90
2019-05-02T09:35:12.072Z,99.90
2019-05-02T09:37:41.694Z,99.90
2019-05-02T09:40:12.597Z,99.90
2019-05-02T09:42:36.384Z,99.90
2019-05-02T09:45:04.767Z,99.90
2019-05-02T09:47:41.542Z,99.90
2019-05-02T09:50:05.638Z,99.90
2019-05-02T09:52:39.186Z,99.90
2019-05-02T09:55:02.847Z,99.90
2019-05-02T09:57:28.417Z,99.90
2019-05-02T09:59:55.975Z,99.90
2019-05-02T10:02:25.249Z,99.90
2019-05-02T10:04:53.534Z,99.90
2019-05-02T10:07:22.267Z,99.90
2019-05-02T10:09:48.715Z,99.90
2019-05-02T10:12:16.278Z,99.90
2019-05-02T10:14:43.847Z,99.90
2019-05-02T10:17:12.563Z,99.90
2019-05-02T10:19:41.238Z,99.90
2019-05-02T10:22:06.631Z,99.90
2019-05-02T10:24:34.191Z,99.90
2019-05-02T10:27:06.474Z,99.90
2019-05-02T10:29:32.722Z,99.90
2019-05-02T10:31:57.896Z,99.90
2019-05-02T10:34:26.376Z,99.90
2019-05-02T10:36:58.526Z,99.90
2019-05-02T10:39:23.479Z,97.20
2019-05-02T10:41:49.155Z,95.60
2019-05-02T10:44:16.715Z,92.90
2019-05-02T10:46:45.063Z,90.10
2019-05-02T10:49:17.294Z,91.70
2019-05-02T10:51:49.188Z,92.90
2019-05-02T10:54:12.455Z,91.70
2019-05-02T10:56:42.416Z,92.90
2019-05-02T10:59:11.647Z,92.80
2019-05-02T11:04:32.430Z,92.00
2019-05-02T11:06:59.599Z,91.50
2019-05-02T11:09:27.153Z,91.40
2019-05-02T11:11:54.717Z,91.50
2019-05-02T11:14:25.833Z,91.60
2019-05-02T11:16:56.977Z,87.80
2019-05-02T11:19:24.594Z,90.50
2019-05-02T11:21:56.533Z,90.00
2019-05-02T11:24:19.765Z,90.70
2019-05-02T11:26:47.331Z,89.70
2019-05-02T11:29:14.896Z,87.80
2019-05-02T11:31:42.799Z,90.50
2019-05-02T11:34:12.181Z,90.50
2019-05-02T11:36:37.862Z,90.20
2019-05-02T11:39:17.005Z,88.60
2019-05-02T11:41:33.231Z,90.60
2019-05-02T11:44:02.778Z,90.10
2019-05-02T11:46:28.407Z,88.00
2019-05-02T11:48:58.544Z,87.50
2019-05-02T11:51:23.712Z,86.50
2019-05-02T11:53:52.736Z,87.10
2019-05-02T11:56:18.875Z,88.00
2019-05-02T11:58:48.157Z,87.00
2019-05-02T12:01:14.040Z,87.20
2019-05-02T12:03:42.289Z,88.70
2019-05-02T12:06:12.730Z,86.10
2019-05-02T12:08:39.381Z,89.30
2019-05-02T12:11:08.460Z,89.60
2019-05-02T12:13:34.511Z,88.60
2019-05-02T12:16:02.705Z,88.60
2019-05-02T12:18:29.697Z,90.10
2019-05-02T12:20:57.276Z,91.00
2019-05-02T12:23:24.892Z,92.10
2019-05-02T12:25:53.227Z,93.10
2019-05-02T12:28:22.737Z,93.10
2019-05-02T12:30:51.880Z,93.30
2019-05-02T12:33:17.982Z,94.00
2019-05-02T12:35:45.547Z,94.70
2019-05-02T12:38:13.885Z,95.70
2019-05-02T12:40:42.203Z,95.80
2019-05-02T12:43:09.068Z,96.60
2019-05-02T12:45:36.635Z,96.90
2019-05-02T12:48:04.207Z,96.80
2019-05-02T12:50:32.190Z,96.90
2019-05-02T12:52:59.388Z,97.60
2019-05-02T12:55:26.953Z,98.10
2019-05-02T12:57:55.427Z,99.20
2019-05-02T13:00:22.994Z,99.90
2019-05-02T13:02:52.634Z,99.90
2019-05-02T13:05:22.155Z,99.90
2019-05-02T13:07:50.521Z,99.90
2019-05-02T13:10:17.015Z,99.90
2019-05-02T13:12:44.576Z,99.90
2019-05-02T13:15:12.979Z,99.90
2019-05-02T13:17:47.023Z,99.90
2019-05-02T13:20:08.229Z,99.90
2019-05-02T13:22:41.948Z,99.90
2019-05-02T13:25:10.504Z,99.90
2019-05-02T13:27:43.367Z,99.90
2019-05-02T13:30:05.083Z,99.90
2019-05-02T13:32:32.648Z,99.90
2019-05-02T13:35:02.109Z,99.90
2019-05-02T13:37:27.821Z,99.90
2019-05-02T13:39:58.136Z,99.90
2019-05-02T13:42:27.607Z,99.90
2019-05-02T13:44:56.055Z,99.90
2019-05-02T13:47:23.619Z,99.90
2019-05-02T13:49:54.853Z,99.90
2019-05-02T13:52:18.812Z,99.90
2019-05-02T13:54:46.376Z,99.90
2019-05-02T13:57:13.935Z,99.90
2019-05-02T13:59:41.775Z,99.90
2019-05-02T14:02:09.099Z,99.90
2019-05-02T14:04:36.659Z,99.90
2019-05-02T14:07:07.584Z,99.90
2019-05-02T14:09:32.334Z,99.90
2019-05-02T14:14:53.410Z,99.90
2019-05-02T14:17:22.959Z,99.90
2019-05-02T14:19:57.011Z,99.90
2019-05-02T14:22:19.811Z,99.90
2019-05-02T14:24:47.366Z,99.90
2019-05-02T14:27:17.120Z,99.90
2019-05-02T14:29:42.567Z,99.90
2019-05-02T14:32:22.950Z,99.90
2019-05-02T14:34:45.246Z,99.90
2019-05-02T14:37:12.820Z,99.90
2019-05-02T14:39:41.617Z,99.90
2019-05-02T14:42:07.991Z,99.90
2019-05-02T14:45:01.243Z,99.90
2019-05-02T14:47:03.156Z,99.90
2019-05-02T14:49:32.130Z,99.90
2019-05-02T14:52:02.964Z,99.90
2019-05-02T14:54:25.925Z,99.90
2019-05-02T14:56:53.996Z,99.90
2019-05-02T14:59:22.745Z,99.90
2019-05-02T15:01:49.960Z,99.90
2019-05-02T15:04:17.524Z,99.90
2019-05-02T15:06:47.469Z,99.90
2019-05-02T15:09:16.763Z,99.90
2019-05-02T15:11:46.070Z,99.90
2019-05-02T15:14:19.715Z,99.90
2019-05-02T15:16:45.306Z,98.80
2019-05-02T15:19:14.119Z,94.70
2019-05-02T15:21:42.240Z,94.60
2019-05-02T15:24:09.297Z,91.30
2019-05-02T15:26:37.483Z,90.30
2019-05-02T15:29:06.520Z,89.40
2019-05-02T15:31:34.389Z,90.10
2019-05-02T15:34:04.945Z,92.60
2019-05-02T15:36:29.645Z,94.10
2019-05-02T15:41:26.731Z,95.70
2019-05-02T15:43:54.339Z,96.10
2019-05-02T15:46:23.676Z,96.90
2019-05-02T15:48:49.503Z,97.00
2019-05-02T15:51:17.059Z,97.20
2019-05-02T15:53:49.773Z,97.70
2019-05-02T15:56:19.720Z,97.90
2019-05-02T15:58:42.555Z,98.20
2019-05-02T16:01:13.219Z,98.30
2019-05-02T16:03:45.480Z,98.70
2019-05-02T16:06:09.275Z,99.20
2019-05-02T16:08:37.775Z,99.90
2019-05-02T16:11:08.874Z,99.80
2019-05-02T16:13:33.887Z,99.90
2019-05-02T16:16:05.419Z,99.90
2019-05-02T16:18:31.750Z,99.90
2019-05-02T16:21:07.041Z,99.90
2019-05-02T16:23:32.727Z,99.80
2019-05-02T16:25:56.917Z,99.80
2019-05-02T16:28:23.595Z,99.90
2019-05-02T16:30:52.546Z,99.70
2019-05-02T16:33:20.827Z,99.90
2019-05-02T16:35:52.915Z,99.90
2019-05-02T16:38:16.290Z,99.50
2019-05-02T16:40:43.886Z,99.40
2019-05-02T16:43:12.180Z,99.20
2019-05-02T16:45:39.053Z,99.20
2019-05-02T16:48:06.652Z,99.90
2019-05-02T16:50:36.987Z,99.90
2019-05-02T16:53:03.682Z,99.90
2019-05-02T16:55:32.690Z,99.90
2019-05-02T16:58:05.253Z,99.90
2019-05-02T17:00:26.467Z,99.90
2019-05-02T17:02:54.116Z,99.90
2019-05-02T17:05:22.098Z,99.90
2019-05-02T17:08:10.711Z,99.90
2019-05-02T17:10:37.752Z,99.90
2019-05-02T17:13:05.315Z,99.90
2019-05-02T17:15:35.304Z,99.90
2019-05-02T17:18:05.154Z,99.90
2019-05-02T17:20:29.036Z,99.90
2019-05-02T17:23:05.365Z,99.90
2019-05-02T17:25:26.103Z,99.90
2019-05-02T17:28:01.260Z,99.90
2019-05-02T17:30:22.507Z,99.90
2019-05-02T17:32:49.799Z,99.90
2019-05-02T17:35:17.359Z,99.90
2019-05-02T17:37:48.671Z,99.90
2019-05-02T17:40:16.835Z,99.90
2019-05-02T17:42:41.567Z,99.90
2019-05-02T17:45:08.000Z,99.90
2019-05-02T17:47:37.627Z,99.90
2019-05-02T17:50:07.272Z,99.90
2019-05-02T17:52:33.439Z,99.90
2019-05-02T17:55:01.741Z,99.90
2019-05-02T17:57:33.267Z,99.90
2019-05-02T17:59:56.210Z,99.90
2019-05-02T18:02:23.766Z,99.90
2019-05-02T18:04:55.718Z,99.90
2019-05-02T18:07:19.742Z,99.90
2019-05-02T18:09:47.298Z,99.90
2019-05-02T18:12:16.213Z,99.90
2019-05-02T18:14:42.475Z,99.90
2019-05-02T18:17:10.030Z,99.90
2019-05-02T18:19:37.601Z,99.90
2019-05-02T18:22:07.118Z,99.90
2019-05-02T18:24:32.850Z,99.90
2019-05-02T18:27:02.066Z,99.90
2019-05-02T18:29:28.026Z,99.90
2019-05-02T18:31:55.764Z,99.90
2019-05-02T18:34:25.101Z,99.90
2019-05-02T18:36:52.415Z,99.90
2019-05-02T18:39:23.599Z,99.90
2019-05-02T18:41:51.968Z,99.90
2019-05-02T18:44:19.690Z,99.90
2019-05-02T18:46:47.251Z,99.90
2019-05-02T18:49:17.075Z,99.90
2019-05-02T18:51:43.556Z,99.90
2019-05-02T18:54:12.132Z,99.90
2019-05-02T18:56:42.239Z,99.90
2019-05-02T18:59:06.877Z,99.90
2019-05-02T19:01:36.364Z,99.90
2019-05-02T19:04:03.926Z,99.90
2019-05-02T19:06:33.370Z,99.90
2019-05-02T19:09:02.012Z,99.90
2019-05-02T19:11:33.678Z,99.90
2019-05-02T19:13:56.179Z,99.90
2019-05-02T19:16:27.233Z,99.90
2019-05-02T19:18:54.476Z,99.90
2019-05-02T19:21:18.971Z,99.90
2019-05-02T19:23:46.530Z,99.90
2019-05-02T19:26:15.360Z,99.90
2019-05-02T19:28:42.933Z,99.90
2019-05-02T19:31:10.244Z,99.90
2019-05-02T19:33:42.676Z,99.90
2019-05-02T19:36:05.412Z,99.90
2019-05-02T19:38:34.823Z,99.90
2019-05-02T19:41:05.471Z,99.90
2019-05-02T19:43:28.200Z,99.90
2019-05-02T19:45:56.543Z,99.90
2019-05-02T19:48:27.423Z,99.90
2019-05-02T19:50:51.883Z,99.90
2019-05-02T19:53:19.643Z,99.90
2019-05-02T19:55:46.939Z,99.90
2019-05-02T19:58:14.523Z,99.90
2019-05-02T20:00:46.060Z,99.90
2019-05-02T20:03:13.627Z,99.90
2019-05-02T20:05:37.326Z,99.90
2019-05-02T20:08:04.887Z,99.90
2019-05-02T20:10:33.223Z,99.90
2019-05-02T20:13:02.928Z,99.90
2019-05-02T20:15:30.233Z,99.90
2019-05-02T20:18:00.724Z,99.90
2019-05-02T20:20:35.952Z,99.90
2019-05-02T20:23:15.007Z,99.90
2019-05-02T20:25:29.917Z,99.90
2019-05-02T20:27:57.311Z,99.90
2019-05-02T20:30:24.876Z,99.90
2019-05-02T20:32:52.426Z,99.90
2019-05-02T20:35:19.994Z,99.90
2019-05-02T20:37:47.560Z,99.90
2019-05-02T20:40:22.268Z,99.90
2019-05-02T20:42:49.045Z,99.90
2019-05-02T20:45:16.612Z,99.90
2019-05-02T20:47:44.172Z,99.90
2019-05-02T20:50:12.592Z,99.90
2019-05-02T20:52:41.731Z,99.90
2019-05-02T20:55:07.766Z,99.90
2019-05-02T20:57:35.327Z,99.90
2019-05-02T21:00:02.886Z,99.90
2019-05-02T21:02:31.870Z,99.90
2019-05-02T21:04:58.063Z,99.90
2019-05-02T21:07:25.648Z,99.90
2019-05-02T21:10:08.091Z,99.90
2019-05-02T21:12:35.659Z,99.90
2019-05-02T21:15:03.228Z,99.90
2019-05-02T21:17:32.645Z,99.90
2019-05-02T21:19:58.413Z,99.90
2019-05-02T21:22:25.979Z,99.90
2019-05-02T21:24:55.462Z,99.90
2019-05-02T21:27:23.023Z,99.90
2019-05-02T21:29:52.520Z,99.90
2019-05-02T21:32:20.091Z,99.90
2019-05-02T21:34:47.675Z,99.90
2019-05-02T21:37:15.240Z,99.90
2019-05-02T21:39:42.807Z,99.90
2019-05-02T21:42:11.147Z,99.90
2019-05-02T21:44:38.718Z,99.90
2019-05-02T21:47:06.283Z,99.90
2019-05-02T21:49:36.743Z,99.90
2019-05-02T21:52:07.043Z,99.90
2019-05-02T21:54:35.235Z,99.90
2019-05-02T21:57:03.271Z,99.90
2019-05-02T21:59:30.846Z,99.90
2019-05-02T22:01:58.415Z,99.90
2019-05-02T22:04:25.996Z,99.90
2019-05-02T22:06:54.490Z,99.90
2019-05-02T22:09:23.172Z,99.90
2019-05-02T22:11:52.033Z,99.90
2019-05-02T22:14:22.400Z,99.90
2019-05-02T22:16:48.359Z,99.90
2019-05-02T22:19:15.924Z,99.90
2019-05-02T22:21:43.494Z,99.90
2019-05-02T22:24:13.730Z,99.90
2019-05-02T22:26:38.672Z,99.90
2019-05-02T22:29:06.230Z,99.90
2019-05-02T22:31:35.731Z,99.90
2019-05-02T22:34:03.303Z,99.90
2019-05-02T22:36:32.772Z,99.90
2019-05-02T22:39:01.972Z,99.90
2019-05-02T22:41:28.563Z,99.90
2019-05-02T22:43:56.131Z,99.90
2019-05-02T22:46:29.423Z,99.90
2019-05-02T22:48:56.987Z,99.90
2019-05-02T22:51:25.468Z,99.90
2019-05-02T22:53:53.067Z,99.90
2019-05-02T22:56:22.230Z,99.90
2019-05-02T22:58:48.235Z,99.90
2019-05-02T23:01:15.790Z,99.90
2019-05-02T23:03:43.354Z,99.90
2019-05-02T23:06:12.517Z,99.90
2019-05-02T23:08:38.763Z,99.90
2019-05-02T23:11:07.279Z,99.90
2019-05-02T23:13:34.843Z,99.90
2019-05-02T23:16:02.924Z,99.90
2019-05-02T23:18:32.011Z,99.90
2019-05-02T23:21:02.161Z,99.90
2019-05-02T23:23:29.063Z,99.90
2019-05-02T23:25:57.083Z,99.90
2019-05-02T23:28:24.645Z,99.90
2019-05-02T23:30:52.207Z,99.90
2019-05-02T23:33:19.771Z,99.90
2019-05-02T23:35:47.336Z,99.90
2019-05-02T23:38:14.894Z,99.90
2019-05-02T23:40:42.455Z,99.90
2019-05-02T23:43:10.019Z,99.90
2019-05-02T23:45:37.579Z,99.90
2019-05-02T23:48:05.146Z,99.90
2019-05-02T23:50:32.702Z,99.90
2019-05-02T23:53:02.340Z,99.90
2019-05-02T23:55:28.631Z,99.90
2019-05-02T23:57:56.187Z,99.90
